Hauptseite
METAR-TAF:

METAR-TAF

Flughäfen :

Flugplatz Hamburg-Finkenwerder

Finkenwerder, Deutschland

Breite: 53-32N, Länge: 009-50E, Höhe: 5 m

Beobachtung

Neuester Wetterbericht von vor 42 Minuten, um 03:20 UTC
Wind 7 kt aus Ost/Südost, variierte zwischen Ost und Süd/Südost
Temperatur 5°C
Luftfeuchtigkeit 87%
Luftdruck 1029 hPa
Sichtweite: 2700 m

METAR: EDHI 160320Z AUTO 12007KT 080V160 8000 2700 // NCD 05/03 Q1029

Zeit: 05:02 (04:02 UTC)

Prognose

Neuester Wetterbericht von vor 11 Stunden und 2 Minuten, um 17:00 UTC
Gültige Prognose vom 15 um 18 UTC bis 15 um 21 UTC
Wind 5 kt aus Ost/Südost
Sichtweite 10 km oder mehr
keine Wolken unter 1500 m und keine Kumulonimbus oder Gewitterwolken
Wahrscheinlichkeit 30% :
Zeitweise
vom 15 um 19 UTC bis 15 um 21 UTC
Sichtweite: 3500 m
feuchter Dunst

TAF: EDHI 151700Z 1518/1521 12005KT CAVOK PROB30 TEMPO 1519/1521 3500 BR

Wetterbeobachtungen und Prognosen von mehr als 4000 Flughäfen (METAR und TAF Bericht).

Die verfügbaren Stationen werden durch gelbe und rote Markierungen auf der Karte dargestellt.

Führen Sie die Maus auf sie, um den Namen der Station zu sehen.

Darauf klicken, um die Beobachtung von Wetterbeobachtungen und Prognosen zu sehen.

Um die Karte zu ändern : klicken Sie auf den grünen Tasten mit einem schwarzen Kreuz Zum Vergrößern, auf den grünen Button mit einem Gedankenstrich zu verkleinern, oder auf die grünen Pfeile für benachbarte Karten.


METAR-TAF: